Time;durP1;ratioP1;P1;durP2;ratioP2;P2;SDS_P1;SDS_P2;PMS_P1;PMS_P2;Temp;Humidity;BMP_temperature;BMP_pressure;BME280_temperature;BME280_humidity;BME280_pressure;Samples;Min_cycle;Max_cycle;Signal;HPM_P1;HPM_P2
2021/07/06 00:01:51;;;;;;;4.97;1.80;;;;;;;;;;5084880;28;20063;-78
2021/07/06 00:04:17;;;;;;;11.88;2.15;;;;;;;;;;5088936;28;20040;-79
2021/07/06 00:06:42;;;;;;;7.82;2.30;;;;;;;;;;5087817;28;20087;-79
2021/07/06 00:09:08;;;;;;;7.15;1.60;;;;;;;;;;5087316;28;20044;-80
2021/07/06 00:11:33;;;;;;;17.10;2.75;;;;;;;;;;5082108;28;20036;-80
2021/07/06 00:13:59;;;;;;;14.32;1.77;;;;;;;;;;5083045;28;20044;-80
2021/07/06 00:16:24;;;;;;;6.13;2.00;;;;;;;;;;5082748;28;20036;-80
2021/07/06 00:18:50;;;;;;;8.65;1.80;;;;;;;;;;5083420;28;20100;-80
2021/07/06 00:21:15;;;;;;;5.60;1.80;;;;;;;;;;5083212;28;20082;-81
2021/07/06 00:23:41;;;;;;;6.18;1.70;;;;;;;;;;5081808;28;20044;-80
2021/07/06 00:26:07;;;;;;;4.10;1.60;;;;;;;;;;5084234;28;20390;-81
2021/07/06 00:28:33;;;;;;;12.25;2.00;;;;;;;;;;5083616;28;20032;-80
2021/07/06 00:30:59;;;;;;;4.18;1.45;;;;;;;;;;5083234;28;20032;-80
2021/07/06 00:33:29;;;;;;;10.80;2.20;;;;;;;;;;5084111;28;20093;-80
2021/07/06 00:35:58;;;;;;;6.47;2.13;;;;;;;;;;5084364;28;20075;-80
2021/07/06 00:38:24;;;;;;;6.80;2.20;;;;;;;;;;5084167;28;20064;-80
2021/07/06 00:40:52;;;;;;;9.65;2.10;;;;;;;;;;5084611;28;20047;-81
2021/07/06 00:43:17;;;;;;;10.18;1.63;;;;;;;;;;5084940;28;20224;-81
2021/07/06 00:45:42;;;;;;;7.03;1.67;;;;;;;;;;5084570;28;20045;-81
2021/07/06 00:48:08;;;;;;;4.00;1.42;;;;;;;;;;5085170;28;20040;-80
2021/07/06 00:50:33;;;;;;;5.68;1.73;;;;;;;;;;5084972;28;20032;-80
2021/07/06 00:52:59;;;;;;;4.75;1.58;;;;;;;;;;5085181;28;20041;-80
2021/07/06 00:55:24;;;;;;;3.70;1.38;;;;;;;;;;5085039;28;20111;-80
2021/07/06 00:57:50;;;;;;;6.80;1.73;;;;;;;;;;5086764;28;20039;-80
2021/07/06 01:00:19;;;;;;;6.90;1.50;;;;;;;;;;5087296;28;20063;-80
2021/07/06 01:02:44;;;;;;;5.68;1.65;;;;;;;;;;5087322;28;20032;-80
2021/07/06 01:05:13;;;;;;;7.78;1.50;;;;;;;;;;5087157;28;20028;-80
2021/07/06 01:07:39;;;;;;;13.18;3.25;;;;;;;;;;5087310;28;20047;-80
2021/07/06 01:10:06;;;;;;;5.22;1.70;;;;;;;;;;5087251;28;20040;-80
2021/07/06 01:12:32;;;;;;;14.55;2.67;;;;;;;;;;5087254;28;20040;-80
2021/07/06 01:14:59;;;;;;;8.75;1.48;;;;;;;;;;5086935;28;20036;-80
2021/07/06 01:17:27;;;;;;;7.07;1.58;;;;;;;;;;5088037;28;20032;-80
2021/07/06 01:19:53;;;;;;;10.52;1.52;;;;;;;;;;5088081;28;20078;-81
2021/07/06 01:22:32;;;;;;;5.93;1.40;;;;;;;;;;5088800;28;20071;-80
2021/07/06 01:24:59;;;;;;;4.38;1.60;;;;;;;;;;5088552;28;20045;-80
2021/07/06 01:27:25;;;;;;;3.65;1.50;;;;;;;;;;5088813;28;20092;-80
2021/07/06 01:29:53;;;;;;;5.82;1.52;;;;;;;;;;5089940;28;20041;-80
2021/07/06 01:32:18;;;;;;;6.68;1.48;;;;;;;;;;5087634;28;20039;-80
2021/07/06 01:34:43;;;;;;;5.05;1.40;;;;;;;;;;5089146;28;20040;-80
2021/07/06 01:37:09;;;;;;;6.43;1.60;;;;;;;;;;5088934;28;20033;-80
2021/07/06 01:39:34;;;;;;;3.05;1.50;;;;;;;;;;5088846;28;20039;-80
2021/07/06 01:41:59;;;;;;;3.70;1.27;;;;;;;;;;5089638;28;20041;-80
2021/07/06 01:44:27;;;;;;;6.22;2.42;;;;;;;;;;5083439;28;20032;-80
2021/07/06 01:46:53;;;;;;;13.43;2.05;;;;;;;;;;5082814;28;20069;-80
2021/07/06 01:49:20;;;;;;;15.35;1.63;;;;;;;;;;5083648;28;20037;-80
2021/07/06 01:51:47;;;;;;;7.57;1.48;;;;;;;;;;5083247;28;20020;-81
2021/07/06 01:54:14;;;;;;;4.15;1.38;;;;;;;;;;5084439;28;20052;-80
2021/07/06 01:56:41;;;;;;;4.68;1.17;;;;;;;;;;5084748;28;20041;-80
2021/07/06 01:59:07;;;;;;;6.15;1.42;;;;;;;;;;5086728;28;20121;-80
2021/07/06 02:01:34;;;;;;;3.53;1.25;;;;;;;;;;5086285;28;20062;-80
2021/07/06 02:04:00;;;;;;;11.57;1.67;;;;;;;;;;5086553;28;20044;-80
2021/07/06 02:06:26;;;;;;;6.47;1.20;;;;;;;;;;5087206;28;20036;-80
2021/07/06 02:08:51;;;;;;;8.15;1.65;;;;;;;;;;5088055;28;20040;-80
2021/07/06 02:11:17;;;;;;;3.97;1.50;;;;;;;;;;5088010;28;20047;-80
2021/07/06 02:13:42;;;;;;;2.28;1.20;;;;;;;;;;5088953;28;20028;-80
2021/07/06 02:16:08;;;;;;;7.75;1.58;;;;;;;;;;5087949;28;20040;-81
2021/07/06 02:18:34;;;;;;;3.85;1.23;;;;;;;;;;5087889;28;20044;-81
2021/07/06 02:20:59;;;;;;;6.18;1.25;;;;;;;;;;5089246;28;20096;-81
2021/07/06 02:23:27;;;;;;;4.80;1.50;;;;;;;;;;5089256;28;20032;-79
2021/07/06 02:25:54;;;;;;;3.35;1.70;;;;;;;;;;5087854;28;20032;-81
2021/07/06 02:28:21;;;;;;;2.88;1.23;;;;;;;;;;5089231;28;20028;-81
2021/07/06 02:30:48;;;;;;;2.90;1.35;;;;;;;;;;5089524;28;20041;-81
2021/07/06 02:33:14;;;;;;;10.20;1.95;;;;;;;;;;5089985;28;20040;-81
2021/07/06 02:35:40;;;;;;;6.18;1.70;;;;;;;;;;5090158;28;20043;-81
2021/07/06 02:38:06;;;;;;;6.80;1.35;;;;;;;;;;5089385;28;20071;-81
2021/07/06 02:40:32;;;;;;;10.93;1.50;;;;;;;;;;5090476;28;20095;-81
2021/07/06 02:42:59;;;;;;;6.47;1.65;;;;;;;;;;5090562;28;20039;-81
2021/07/06 02:45:25;;;;;;;8.30;1.92;;;;;;;;;;5090971;28;20060;-80
2021/07/06 02:47:51;;;;;;;3.78;1.30;;;;;;;;;;5089859;28;20028;-81
2021/07/06 02:50:17;;;;;;;8.45;1.65;;;;;;;;;;5089920;28;20062;-81
2021/07/06 02:52:43;;;;;;;6.68;1.30;;;;;;;;;;5091150;28;20101;-81
2021/07/06 02:55:10;;;;;;;12.35;2.22;;;;;;;;;;5090031;28;20078;-81
2021/07/06 02:57:37;;;;;;;6.85;1.80;;;;;;;;;;5092856;28;20078;-82
2021/07/06 03:00:17;;;;;;;7.00;1.55;;;;;;;;;;5093226;28;20040;-82
2021/07/06 03:02:45;;;;;;;6.45;1.73;;;;;;;;;;5092080;28;20036;-80
2021/07/06 03:05:13;;;;;;;7.38;2.00;;;;;;;;;;5075217;28;20048;-82
2021/07/06 03:07:39;;;;;;;4.80;1.33;;;;;;;;;;5090913;28;20051;-82
2021/07/06 03:10:25;;;;;;;11.48;1.75;;;;;;;;;;5092083;28;20036;-82
2021/07/06 03:12:51;;;;;;;7.45;1.90;;;;;;;;;;5090780;28;20096;-82
2021/07/06 03:15:18;;;;;;;6.32;1.90;;;;;;;;;;5090091;28;20095;-82
2021/07/06 03:17:44;;;;;;;22.15;1.63;;;;;;;;;;5082190;28;20041;-82
2021/07/06 03:20:12;;;;;;;14.93;1.80;;;;;;;;;;5083965;28;20025;-83
2021/07/06 03:22:39;;;;;;;5.32;1.67;;;;;;;;;;5085069;28;20064;-83
2021/07/06 03:25:07;;;;;;;6.60;2.10;;;;;;;;;;5084094;28;20051;-83
2021/07/06 03:27:33;;;;;;;4.63;1.63;;;;;;;;;;5084327;28;20039;-83
2021/07/06 03:29:59;;;;;;;9.20;2.30;;;;;;;;;;5067314;28;20104;-83
2021/07/06 03:32:24;;;;;;;18.35;3.67;;;;;;;;;;5085919;28;20032;-82
2021/07/06 03:34:50;;;;;;;16.98;3.13;;;;;;;;;;5086453;28;20379;-82
2021/07/06 03:37:15;;;;;;;10.23;3.10;;;;;;;;;;5086533;28;20040;-82
2021/07/06 03:39:41;;;;;;;11.73;2.75;;;;;;;;;;5090792;28;20032;-82
2021/07/06 03:42:09;;;;;;;7.00;1.95;;;;;;;;;;5074355;28;20059;-82
2021/07/06 03:44:35;;;;;;;13.48;2.95;;;;;;;;;;5075156;28;20033;-82
2021/07/06 03:47:01;;;;;;;14.85;2.30;;;;;;;;;;5086949;28;20090;-83
2021/07/06 03:49:27;;;;;;;7.85;2.25;;;;;;;;;;5085417;28;20036;-83
2021/07/06 03:51:52;;;;;;;5.63;1.83;;;;;;;;;;5086231;28;20096;-83
2021/07/06 03:54:18;;;;;;;6.00;1.65;;;;;;;;;;5086058;28;20044;-82
2021/07/06 03:56:43;;;;;;;5.55;1.60;;;;;;;;;;5084825;28;20033;-83
2021/07/06 03:59:09;;;;;;;16.75;2.90;;;;;;;;;;5086622;28;20064;-82
2021/07/06 04:01:34;;;;;;;10.48;2.58;;;;;;;;;;5087873;28;20063;-82
2021/07/06 04:04:01;;;;;;;5.68;1.88;;;;;;;;;;5086113;28;20054;-82
2021/07/06 04:06:26;;;;;;;23.48;3.88;;;;;;;;;;5086198;28;20016;-82
2021/07/06 04:08:53;;;;;;;10.20;3.20;;;;;;;;;;5086120;28;20458;-82
2021/07/06 04:11:18;;;;;;;7.53;2.20;;;;;;;;;;5086416;28;20063;-83
2021/07/06 04:13:44;;;;;;;9.35;2.20;;;;;;;;;;5085351;28;20028;-82
2021/07/06 04:16:09;;;;;;;5.15;2.00;;;;;;;;;;5086598;28;20037;-83
2021/07/06 04:18:35;;;;;;;11.48;1.98;;;;;;;;;;5086053;28;20043;-82
2021/07/06 04:21:01;;;;;;;10.65;2.20;;;;;;;;;;5087218;28;20097;-82
2021/07/06 04:23:26;;;;;;;9.13;1.90;;;;;;;;;;5085964;28;20064;-82
2021/07/06 04:25:51;;;;;;;5.93;2.17;;;;;;;;;;5086807;28;20072;-82
2021/07/06 04:28:17;;;;;;;8.57;1.77;;;;;;;;;;5087578;28;20115;-82
2021/07/06 04:30:43;;;;;;;5.72;1.27;;;;;;;;;;5087809;28;20043;-82
2021/07/06 04:33:09;;;;;;;3.67;1.45;;;;;;;;;;5087417;28;20079;-82
2021/07/06 04:35:34;;;;;;;1.85;1.60;;;;;;;;;;5086540;28;20040;-82
2021/07/06 04:38:00;;;;;;;3.20;1.58;;;;;;;;;;5087854;28;20044;-82
2021/07/06 04:40:25;;;;;;;3.90;1.40;;;;;;;;;;5087911;28;20032;-82
2021/07/06 04:42:55;;;;;;;5.93;1.50;;;;;;;;;;5087401;28;20090;-82
2021/07/06 04:45:20;;;;;;;9.40;2.33;;;;;;;;;;5088241;28;20064;-81
2021/07/06 04:47:46;;;;;;;7.05;1.42;;;;;;;;;;5088176;28;20028;-82
2021/07/06 04:50:15;;;;;;;6.40;1.65;;;;;;;;;;5083938;28;20045;-82
2021/07/06 04:52:46;;;;;;;5.00;1.70;;;;;;;;;;5084903;28;20052;-82
2021/07/06 04:55:11;;;;;;;5.05;1.50;;;;;;;;;;5084280;28;20086;-82
2021/07/06 04:57:37;;;;;;;4.57;1.90;;;;;;;;;;5084399;28;20029;-81
2021/07/06 05:00:04;;;;;;;10.57;2.17;;;;;;;;;;5086383;28;20032;-82
2021/07/06 05:02:30;;;;;;;4.13;1.40;;;;;;;;;;5086467;28;20091;-82
2021/07/06 05:04:56;;;;;;;4.40;2.13;;;;;;;;;;5087587;28;20037;-82
2021/07/06 05:07:21;;;;;;;1.80;1.45;;;;;;;;;;5088421;28;20111;-82
2021/07/06 05:09:47;;;;;;;6.22;2.50;;;;;;;;;;5071615;28;20058;-82
2021/07/06 05:12:12;;;;;;;3.65;1.88;;;;;;;;;;5084407;28;20040;-82
2021/07/06 05:14:38;;;;;;;5.55;1.80;;;;;;;;;;5089019;28;20037;-82
2021/07/06 05:17:03;;;;;;;6.53;1.50;;;;;;;;;;5089688;28;20071;-82
2021/07/06 05:19:29;;;;;;;4.63;1.63;;;;;;;;;;5089795;28;20057;-82
2021/07/06 05:21:54;;;;;;;3.90;1.40;;;;;;;;;;5073191;28;20041;-82
2021/07/06 05:24:20;;;;;;;4.38;1.40;;;;;;;;;;5090137;28;20036;-82
2021/07/06 05:26:45;;;;;;;6.63;1.77;;;;;;;;;;5073680;28;20020;-82
2021/07/06 05:29:11;;;;;;;2.13;1.35;;;;;;;;;;5090873;28;20094;-82
2021/07/06 05:31:37;;;;;;;2.58;1.38;;;;;;;;;;5090156;28;20033;-82
2021/07/06 05:34:02;;;;;;;10.25;1.85;;;;;;;;;;5090482;28;20036;-82
2021/07/06 05:36:28;;;;;;;3.05;1.48;;;;;;;;;;5089459;28;20040;-82
2021/07/06 05:38:53;;;;;;;5.22;1.95;;;;;;;;;;5088332;28;20043;-82
2021/07/06 05:41:19;;;;;;;6.05;2.00;;;;;;;;;;5089290;28;20037;-82
2021/07/06 05:43:45;;;;;;;6.28;1.88;;;;;;;;;;5088923;28;20032;-82
2021/07/06 05:46:11;;;;;;;8.93;1.75;;;;;;;;;;5088647;28;20047;-82
2021/07/06 05:48:37;;;;;;;3.00;1.80;;;;;;;;;;5089589;28;20053;-82
2021/07/06 05:51:02;;;;;;;3.42;1.50;;;;;;;;;;5089931;28;20075;-82
2021/07/06 05:53:27;;;;;;;8.57;1.52;;;;;;;;;;5090220;28;20036;-82
2021/07/06 05:55:53;;;;;;;8.75;1.65;;;;;;;;;;5089753;28;20058;-82
2021/07/06 05:58:18;;;;;;;3.42;1.50;;;;;;;;;;5090211;28;20075;-82
2021/07/06 06:00:44;;;;;;;5.93;1.90;;;;;;;;;;5090250;28;20032;-82
2021/07/06 06:03:12;;;;;;;4.65;1.40;;;;;;;;;;5089989;28;20020;-82
2021/07/06 06:05:38;;;;;;;4.50;1.88;;;;;;;;;;5090030;28;20413;-82
2021/07/06 06:08:04;;;;;;;4.45;1.55;;;;;;;;;;5090030;28;20028;-82
2021/07/06 06:10:30;;;;;;;6.25;1.70;;;;;;;;;;5090010;28;20047;-82
2021/07/06 06:12:56;;;;;;;2.05;1.58;;;;;;;;;;5089690;28;20044;-82
2021/07/06 06:15:21;;;;;;;7.72;1.65;;;;;;;;;;5090741;28;20037;-82
2021/07/06 06:17:47;;;;;;;8.70;2.05;;;;;;;;;;5090451;28;20116;-82
2021/07/06 06:20:13;;;;;;;6.32;1.33;;;;;;;;;;5090025;28;20045;-82
2021/07/06 06:22:39;;;;;;;5.45;1.20;;;;;;;;;;5086833;28;20032;-82
2021/07/06 06:25:05;;;;;;;1.95;1.10;;;;;;;;;;5084281;28;20039;-82
2021/07/06 06:27:30;;;;;;;3.05;0.93;;;;;;;;;;5085350;28;20085;-82
2021/07/06 06:29:57;;;;;;;4.55;1.40;;;;;;;;;;5085521;28;20033;-82
2021/07/06 06:32:23;;;;;;;1.83;0.80;;;;;;;;;;5086293;28;20072;-82
2021/07/06 06:34:51;;;;;;;5.65;0.98;;;;;;;;;;5088805;28;20040;-83
2021/07/06 06:37:16;;;;;;;7.40;2.20;;;;;;;;;;5088780;28;20040;-83
2021/07/06 06:39:42;;;;;;;4.53;1.10;;;;;;;;;;5090063;28;20037;-83
2021/07/06 06:42:08;;;;;;;3.25;0.95;;;;;;;;;;5089498;28;20052;-83
2021/07/06 06:44:34;;;;;;;4.00;1.08;;;;;;;;;;5090073;28;20036;-83
2021/07/06 06:46:59;;;;;;;3.65;1.00;;;;;;;;;;5090212;28;20044;-83
2021/07/06 06:49:25;;;;;;;3.75;1.05;;;;;;;;;;5090044;28;20032;-83
2021/07/06 06:51:50;;;;;;;6.40;1.25;;;;;;;;;;5086973;28;20066;-81
2021/07/06 06:54:17;;;;;;;7.05;1.02;;;;;;;;;;5086690;28;20036;-79
2021/07/06 06:56:43;;;;;;;2.30;0.85;;;;;;;;;;5087075;28;20182;-80
2021/07/06 06:59:10;;;;;;;1.10;1.00;;;;;;;;;;5088547;28;20028;-79
2021/07/06 07:01:37;;;;;;;4.75;0.70;;;;;;;;;;5089811;28;20036;-80
2021/07/06 07:04:06;;;;;;;2.15;0.95;;;;;;;;;;5089583;28;20028;-80
2021/07/06 07:06:33;;;;;;;1.48;0.88;;;;;;;;;;5092864;28;20023;-81
2021/07/06 07:08:58;;;;;;;2.80;0.93;;;;;;;;;;5093069;28;20036;-81
2021/07/06 07:11:24;;;;;;;2.58;0.90;;;;;;;;;;5091165;28;20029;-81
2021/07/06 07:13:49;;;;;;;1.60;0.80;;;;;;;;;;5091647;28;20035;-82
2021/07/06 07:16:15;;;;;;;1.65;1.25;;;;;;;;;;5090052;28;20036;-80
2021/07/06 07:18:41;;;;;;;1.27;0.70;;;;;;;;;;5082706;28;20100;-80
2021/07/06 07:21:06;;;;;;;3.03;1.10;;;;;;;;;;5063881;28;20037;-79
2021/07/06 07:23:32;;;;;;;4.28;1.05;;;;;;;;;;5079930;28;20040;-80
2021/07/06 07:25:57;;;;;;;1.02;0.70;;;;;;;;;;5079532;28;20028;-80
2021/07/06 07:28:23;;;;;;;2.30;1.10;;;;;;;;;;5078182;28;20040;-79
2021/07/06 07:30:48;;;;;;;6.95;1.40;;;;;;;;;;5079678;28;20055;-79
2021/07/06 07:33:14;;;;;;;1.95;1.00;;;;;;;;;;5080656;28;20052;-79
2021/07/06 07:35:39;;;;;;;2.42;0.82;;;;;;;;;;5082054;28;20048;-79
2021/07/06 07:38:05;;;;;;;5.90;0.95;;;;;;;;;;5087319;28;20096;-79
2021/07/06 07:40:31;;;;;;;6.22;1.02;;;;;;;;;;5085400;28;20032;-80
2021/07/06 07:42:56;;;;;;;6.65;1.15;;;;;;;;;;5085273;28;20105;-80
2021/07/06 07:45:22;;;;;;;1.73;0.70;;;;;;;;;;5081903;28;20104;-79
2021/07/06 07:47:47;;;;;;;2.08;0.88;;;;;;;;;;5084084;28;20125;-80
2021/07/06 07:50:13;;;;;;;2.58;0.93;;;;;;;;;;5087180;28;20119;-79
2021/07/06 07:52:39;;;;;;;2.05;1.02;;;;;;;;;;5082969;28;20020;-79
2021/07/06 07:55:06;;;;;;;0.90;0.75;;;;;;;;;;5081575;28;20044;-79
2021/07/06 07:57:32;;;;;;;4.78;1.00;;;;;;;;;;5082002;28;20116;-79
2021/07/06 07:59:57;;;;;;;1.92;0.90;;;;;;;;;;5081846;28;20067;-79
2021/07/06 08:02:23;;;;;;;1.85;0.85;;;;;;;;;;5082640;28;20033;-79
2021/07/06 08:04:50;;;;;;;2.88;0.77;;;;;;;;;;5082750;28;20036;-79
2021/07/06 08:07:16;;;;;;;4.20;0.70;;;;;;;;;;5083927;28;20044;-79
2021/07/06 08:09:42;;;;;;;1.30;0.90;;;;;;;;;;5085972;28;20040;-79
2021/07/06 08:12:07;;;;;;;1.13;0.70;;;;;;;;;;5085499;28;20047;-79
2021/07/06 08:14:33;;;;;;;1.25;0.90;;;;;;;;;;5086086;28;20033;-79
2021/07/06 08:16:59;;;;;;;1.83;0.80;;;;;;;;;;5086086;28;20041;-79
2021/07/06 08:19:25;;;;;;;1.08;0.90;;;;;;;;;;5086810;28;20033;-79
2021/07/06 08:21:51;;;;;;;1.83;1.00;;;;;;;;;;5086870;28;20037;-79
2021/07/06 08:24:17;;;;;;;2.50;0.90;;;;;;;;;;5086637;28;20043;-79
2021/07/06 08:26:44;;;;;;;1.15;0.80;;;;;;;;;;5089836;28;20051;-78
2021/07/06 08:29:10;;;;;;;1.25;0.80;;;;;;;;;;5090774;28;20032;-79
2021/07/06 08:31:35;;;;;;;2.13;0.80;;;;;;;;;;5090856;28;20052;-79
2021/07/06 08:34:01;;;;;;;4.78;1.00;;;;;;;;;;5091055;28;20040;-78
2021/07/06 08:36:26;;;;;;;2.05;0.73;;;;;;;;;;5091132;28;20041;-79
2021/07/06 08:38:52;;;;;;;2.05;1.00;;;;;;;;;;5090690;28;20029;-79
2021/07/06 08:41:17;;;;;;;4.88;0.93;;;;;;;;;;5091444;28;20037;-79
2021/07/06 08:43:43;;;;;;;3.22;1.10;;;;;;;;;;5090293;28;20043;-81
2021/07/06 08:46:08;;;;;;;2.90;0.98;;;;;;;;;;5084065;28;20048;-81
2021/07/06 08:48:35;;;;;;;3.53;1.20;;;;;;;;;;5084680;28;20048;-80
2021/07/06 08:51:02;;;;;;;4.38;0.55;;;;;;;;;;5084966;28;20040;-80
2021/07/06 08:53:28;;;;;;;3.00;0.70;;;;;;;;;;5084469;28;20032;-80
2021/07/06 08:55:56;;;;;;;2.03;1.02;;;;;;;;;;5086494;28;20031;-81
2021/07/06 08:58:22;;;;;;;2.53;1.05;;;;;;;;;;5086442;28;20032;-78
2021/07/06 09:00:48;;;;;;;2.83;0.95;;;;;;;;;;5087815;28;20063;-79
2021/07/06 09:03:13;;;;;;;1.67;0.95;;;;;;;;;;5082544;28;20043;-81
2021/07/06 09:05:39;;;;;;;6.32;0.90;;;;;;;;;;5079554;28;20032;-79
2021/07/06 09:08:05;;;;;;;2.97;0.80;;;;;;;;;;5081823;28;20447;-80
2021/07/06 09:10:37;;;;;;;7.05;1.02;;;;;;;;;;5080597;28;20036;-80
2021/07/06 09:13:26;;;;;;;1.45;0.80;;;;;;;;;;5082022;28;20036;-80
2021/07/06 09:15:54;;;;;;;5.75;1.15;;;;;;;;;;5082005;28;20486;-78
2021/07/06 09:18:21;;;;;;;1.02;0.98;;;;;;;;;;5083567;28;20036;-78
2021/07/06 09:21:10;;;;;;;1.52;0.90;;;;;;;;;;5083032;28;20147;-79
2021/07/06 09:23:48;;;;;;;4.22;0.98;;;;;;;;;;5084678;28;20059;-80
2021/07/06 09:26:17;;;;;;;2.72;0.80;;;;;;;;;;5083449;28;20032;-80
2021/07/06 09:28:46;;;;;;;2.22;1.00;;;;;;;;;;5085017;28;20036;-79
2021/07/06 09:31:39;;;;;;;1.33;0.93;;;;;;;;;;5082514;28;20528;-79
2021/07/06 09:34:10;;;;;;;2.20;0.77;;;;;;;;;;5081784;28;20044;-77
2021/07/06 09:36:35;;;;;;;2.28;0.95;;;;;;;;;;5082351;28;20040;-80
2021/07/06 09:39:12;;;;;;;2.72;0.82;;;;;;;;;;5085330;28;20367;-83
2021/07/06 09:41:39;;;;;;;1.13;0.93;;;;;;;;;;5084098;28;20414;-79
2021/07/06 09:44:20;;;;;;;4.13;1.02;;;;;;;;;;5066736;28;20040;-80
2021/07/06 09:46:54;;;;;;;2.92;1.30;;;;;;;;;;5082284;28;20140;-79
2021/07/06 09:49:32;;;;;;;1.63;0.93;;;;;;;;;;5080091;28;20036;-80
2021/07/06 09:52:07;;;;;;;5.07;1.33;;;;;;;;;;5081017;28;20431;-79
2021/07/06 09:54:35;;;;;;;1.27;0.90;;;;;;;;;;5080399;28;20081;-79
2021/07/06 09:57:10;;;;;;;1.65;1.00;;;;;;;;;;5081308;28;20033;-82
2021/07/06 09:59:35;;;;;;;9.25;2.17;;;;;;;;;;5061524;28;20044;-78
2021/07/06 10:02:03;;;;;;;5.45;1.98;;;;;;;;;;5080367;28;20047;-82
2021/07/06 10:04:29;;;;;;;3.88;1.77;;;;;;;;;;5082243;28;20040;-80
2021/07/06 10:06:57;;;;;;;7.28;1.98;;;;;;;;;;5082733;28;20329;-80
2021/07/06 10:09:25;;;;;;;5.38;1.70;;;;;;;;;;5084233;28;20064;-81
2021/07/06 10:11:52;;;;;;;4.60;1.85;;;;;;;;;;5082704;28;20044;-81
2021/07/06 10:14:20;;;;;;;10.13;1.80;;;;;;;;;;5081294;28;20067;-78
2021/07/06 10:16:46;;;;;;;3.50;1.50;;;;;;;;;;5082044;28;20036;-77
2021/07/06 10:19:11;;;;;;;8.23;1.73;;;;;;;;;;5083030;28;20052;-78
2021/07/06 10:21:37;;;;;;;2.00;1.30;;;;;;;;;;5083218;28;20028;-77
2021/07/06 10:24:04;;;;;;;3.03;1.33;;;;;;;;;;5083009;28;20054;-78
2021/07/06 10:26:31;;;;;;;5.00;1.33;;;;;;;;;;5085065;28;20081;-84
2021/07/06 10:28:57;;;;;;;5.38;1.55;;;;;;;;;;5085345;28;20047;-81
2021/07/06 10:31:24;;;;;;;5.03;1.73;;;;;;;;;;5087332;28;20028;-82
2021/07/06 10:33:50;;;;;;;2.35;1.63;;;;;;;;;;5078108;28;20037;-80
2021/07/06 10:36:17;;;;;;;2.85;1.50;;;;;;;;;;5077098;28;20040;-78
2021/07/06 10:38:53;;;;;;;3.13;1.50;;;;;;;;;;5073650;28;20456;-78
2021/07/06 10:41:41;;;;;;;7.63;1.67;;;;;;;;;;5074594;28;20044;-78
2021/07/06 10:44:07;;;;;;;6.68;1.50;;;;;;;;;;5074655;28;20059;-77
2021/07/06 10:46:39;;;;;;;10.90;1.80;;;;;;;;;;5074423;28;20072;-78
2021/07/06 10:49:10;;;;;;;4.32;1.70;;;;;;;;;;5075162;28;20500;-78
2021/07/06 10:54:07;;;;;;;8.05;2.35;;;;;;;;;;5076610;28;20040;-79
2021/07/06 10:56:34;;;;;;;7.30;2.55;;;;;;;;;;5077410;28;20036;-79
2021/07/06 10:59:05;;;;;;;13.35;5.55;;;;;;;;;;5076916;28;20398;-79
2021/07/06 11:01:36;;;;;;;5.78;3.80;;;;;;;;;;5077566;28;20071;-79
2021/07/06 11:04:06;;;;;;;7.43;1.92;;;;;;;;;;5077995;28;20037;-79
2021/07/06 11:06:44;;;;;;;6.68;1.77;;;;;;;;;;5077755;28;20078;-79
2021/07/06 11:09:10;;;;;;;9.23;1.33;;;;;;;;;;5077509;28;20083;-80
2021/07/06 11:11:36;;;;;;;2.15;1.50;;;;;;;;;;5077786;28;20033;-80
2021/07/06 11:14:21;;;;;;;3.35;1.10;;;;;;;;;;5075988;28;20044;-80
2021/07/06 11:17:02;;;;;;;3.65;1.50;;;;;;;;;;5076846;28;20402;-80
2021/07/06 11:19:38;;;;;;;1.33;0.90;;;;;;;;;;5077090;28;20032;-80
2021/07/06 11:22:12;;;;;;;3.15;1.42;;;;;;;;;;5077871;28;20033;-80
2021/07/06 11:24:46;;;;;;;4.68;1.30;;;;;;;;;;5075924;28;20123;-80
2021/07/06 11:27:13;;;;;;;2.78;1.40;;;;;;;;;;5077122;28;20078;-80
2021/07/06 11:29:41;;;;;;;1.75;0.90;;;;;;;;;;5076645;28;20024;-79
2021/07/06 11:32:18;;;;;;;4.60;1.30;;;;;;;;;;5076299;28;20040;-80
2021/07/06 11:34:45;;;;;;;2.05;1.13;;;;;;;;;;5074977;28;20132;-79
2021/07/06 11:37:15;;;;;;;3.10;1.08;;;;;;;;;;5057630;28;20494;-79
2021/07/06 11:39:41;;;;;;;1.73;0.85;;;;;;;;;;5074451;28;20047;-79
2021/07/06 11:42:07;;;;;;;1.75;1.08;;;;;;;;;;5076309;28;20029;-79
2021/07/06 11:44:33;;;;;;;2.50;1.05;;;;;;;;;;5076269;28;20059;-79
2021/07/06 11:47:13;;;;;;;1.63;1.02;;;;;;;;;;5075512;28;20049;-79
2021/07/06 11:49:41;;;;;;;1.92;1.10;;;;;;;;;;5079240;28;20039;-79
2021/07/06 11:52:08;;;;;;;4.57;1.52;;;;;;;;;;5074052;28;20055;-79
2021/07/06 11:54:33;;;;;;;1.38;0.90;;;;;;;;;;5075841;28;20032;-79
2021/07/06 11:57:06;;;;;;;1.50;0.98;;;;;;;;;;5075575;28;20036;-79
2021/07/06 11:59:32;;;;;;;4.57;1.15;;;;;;;;;;5077640;28;20040;-79
2021/07/06 12:02:09;;;;;;;0.98;0.80;;;;;;;;;;5079718;28;20039;-79
2021/07/06 12:04:35;;;;;;;1.83;1.00;;;;;;;;;;5079435;28;20040;-79
2021/07/06 12:07:06;;;;;;;1.25;1.00;;;;;;;;;;5080111;28;20032;-80
2021/07/06 12:09:31;;;;;;;1.65;1.00;;;;;;;;;;5079931;28;20055;-79
2021/07/06 12:12:16;;;;;;;2.30;1.13;;;;;;;;;;5079405;28;20040;-79
2021/07/06 12:14:48;;;;;;;3.70;1.20;;;;;;;;;;5078156;28;20036;-79
2021/07/06 12:17:30;;;;;;;1.05;0.98;;;;;;;;;;5078916;28;20120;-79
2021/07/06 12:19:57;;;;;;;8.25;1.40;;;;;;;;;;5079343;28;20028;-79
2021/07/06 12:22:23;;;;;;;1.42;0.90;;;;;;;;;;5070508;28;20048;-79
2021/07/06 12:24:50;;;;;;;3.70;1.02;;;;;;;;;;5077593;28;20106;-79
2021/07/06 12:27:17;;;;;;;2.38;0.98;;;;;;;;;;5078034;28;20043;-79
2021/07/06 12:29:44;;;;;;;3.33;1.00;;;;;;;;;;5078810;28;20054;-79
2021/07/06 12:32:13;;;;;;;1.83;0.80;;;;;;;;;;5079033;28;20059;-79
2021/07/06 12:34:40;;;;;;;3.42;0.70;;;;;;;;;;5078817;28;20040;-79
2021/07/06 12:37:08;;;;;;;3.05;0.90;;;;;;;;;;5077650;28;20445;-79
2021/07/06 12:39:35;;;;;;;2.58;0.73;;;;;;;;;;5079001;28;20032;-79
2021/07/06 12:42:05;;;;;;;2.10;0.80;;;;;;;;;;5078410;28;20128;-79
2021/07/06 12:44:47;;;;;;;1.15;0.40;;;;;;;;;;5078646;28;20111;-79
2021/07/06 12:47:23;;;;;;;5.55;0.90;;;;;;;;;;5078277;28;20037;-79
2021/07/06 12:50:05;;;;;;;2.30;0.88;;;;;;;;;;5076667;28;20414;-79
2021/07/06 12:52:30;;;;;;;0.85;0.57;;;;;;;;;;5059740;28;20090;-79
2021/07/06 12:55:05;;;;;;;1.27;0.73;;;;;;;;;;5077663;28;20040;-79
2021/07/06 12:57:31;;;;;;;2.00;0.60;;;;;;;;;;5077761;28;20447;-79
2021/07/06 13:00:19;;;;;;;6.25;0.90;;;;;;;;;;5075962;28;20037;-79
2021/07/06 13:03:00;;;;;;;1.65;0.70;;;;;;;;;;5077983;28;20025;-79
2021/07/06 13:05:40;;;;;;;0.68;0.60;;;;;;;;;;5077674;28;20044;-79
2021/07/06 13:08:19;;;;;;;1.08;0.70;;;;;;;;;;5077298;28;20036;-79
2021/07/06 13:10:46;;;;;;;0.70;0.70;;;;;;;;;;5075067;28;20041;-79
2021/07/06 13:13:13;;;;;;;3.40;0.80;;;;;;;;;;5077217;28;20038;-79
2021/07/06 13:15:47;;;;;;;1.20;0.65;;;;;;;;;;5077156;28;20040;-79
2021/07/06 13:18:19;;;;;;;2.75;1.30;;;;;;;;;;5076602;28;20047;-79
2021/07/06 13:20:46;;;;;;;2.25;0.80;;;;;;;;;;5076913;28;20044;-79
2021/07/06 13:23:12;;;;;;;1.02;0.52;;;;;;;;;;5076636;28;20087;-79
2021/07/06 13:25:39;;;;;;;1.15;0.50;;;;;;;;;;5076839;28;20044;-79
2021/07/06 13:28:06;;;;;;;3.05;0.93;;;;;;;;;;5075842;28;20035;-79
2021/07/06 13:30:39;;;;;;;0.73;0.63;;;;;;;;;;5076198;28;20521;-79
2021/07/06 13:33:13;;;;;;;5.38;0.80;;;;;;;;;;5076291;28;20389;-79
2021/07/06 13:35:39;;;;;;;2.30;0.90;;;;;;;;;;5074705;28;20048;-79
2021/07/06 13:38:05;;;;;;;0.80;0.50;;;;;;;;;;5077855;28;20098;-80
2021/07/06 13:40:30;;;;;;;2.28;0.98;;;;;;;;;;5078367;28;20058;-79
2021/07/06 13:42:56;;;;;;;0.75;0.70;;;;;;;;;;5077565;28;20040;-81
2021/07/06 13:45:21;;;;;;;2.97;0.52;;;;;;;;;;5077279;28;20056;-79
2021/07/06 13:47:52;;;;;;;0.80;0.80;;;;;;;;;;5077644;28;20094;-79
2021/07/06 13:50:18;;;;;;;1.13;0.73;;;;;;;;;;5077106;28;20029;-79
2021/07/06 13:52:45;;;;;;;1.02;0.65;;;;;;;;;;5077172;28;20081;-79
2021/07/06 13:55:17;;;;;;;2.85;0.88;;;;;;;;;;5077669;28;20440;-79
2021/07/06 13:57:42;;;;;;;6.35;1.13;;;;;;;;;;5077946;28;20486;-79
2021/07/06 14:00:08;;;;;;;3.03;0.65;;;;;;;;;;5077759;28;20028;-82
2021/07/06 14:02:40;;;;;;;2.65;1.38;;;;;;;;;;5077919;28;20119;-81
2021/07/06 14:05:06;;;;;;;2.28;1.38;;;;;;;;;;5076136;28;20060;-81
2021/07/06 14:07:31;;;;;;;2.38;0.77;;;;;;;;;;5076976;28;20040;-80
2021/07/06 14:09:57;;;;;;;3.75;0.57;;;;;;;;;;5077075;28;20043;-79
2021/07/06 14:12:22;;;;;;;2.50;0.80;;;;;;;;;;5077030;28;20040;-79
2021/07/06 14:14:48;;;;;;;2.65;0.70;;;;;;;;;;5076687;28;20093;-79
2021/07/06 14:17:13;;;;;;;2.47;0.70;;;;;;;;;;5076500;28;20047;-79
2021/07/06 14:19:39;;;;;;;1.45;1.00;;;;;;;;;;5077158;28;20047;-80
2021/07/06 14:22:05;;;;;;;1.15;1.00;;;;;;;;;;5058857;28;20048;-79
2021/07/06 14:24:34;;;;;;;1.73;0.60;;;;;;;;;;5076434;28;20111;-80
2021/07/06 14:27:00;;;;;;;0.80;0.77;;;;;;;;;;5076935;28;20032;-80
2021/07/06 14:29:26;;;;;;;2.50;1.58;;;;;;;;;;5076851;28;20050;-81
2021/07/06 14:31:51;;;;;;;0.98;0.80;;;;;;;;;;5076903;28;20036;-81
2021/07/06 14:34:17;;;;;;;0.65;0.50;;;;;;;;;;5078095;28;20086;-80
2021/07/06 14:36:42;;;;;;;0.60;0.60;;;;;;;;;;5077507;28;20044;-80
2021/07/06 14:39:08;;;;;;;0.90;0.70;;;;;;;;;;5077610;28;20036;-80
2021/07/06 14:41:34;;;;;;;1.30;0.70;;;;;;;;;;5077615;28;20032;-81
2021/07/06 14:43:59;;;;;;;1.85;0.90;;;;;;;;;;5077463;28;20454;-80
2021/07/06 14:46:25;;;;;;;1.05;0.75;;;;;;;;;;5059357;28;20045;-81